KPZQ METAR Reports


Rogers City, Presque Isle County Airport, MI, United States (KPZQ) 45-24-25N 083-48-46W
Oct 16, 2019 - 01:58 PM EDT / 2019.10.16 1758 UTC
Wind: from the NNW (340 degrees) at 18 MPH (16 KT) gusting to 31 MPH (27 KT):0
Visibility: 7 mile(s):0
Sky conditions: overcast
Weather: light rain
Temperature: 43.3 F (6.3 C)
Dew Point: 40.5 F (4.7 C)
Relative Humidity: 89%
Pressure (altimeter): 29.61 in. Hg (1002 hPa)
ob: KPZQ 161758Z AUTO 34016G27KT 7SM -RA OVC016 06/05 A2961 RMK AO2 T00630047 10088 20061
cycle: 18

 

Rogers City METAR Meteogram

Weather Chart

Nearby METAR Reports

KPZQ - Rogers City, Michigan, USA
Distance from station: SSW 1mi, 2km
Updated: Wed, 16-Oct-2019 1:58pm EDT
Light rain, Overcast
Light rain, Overcast
 Wind from NNW
Wind: NNW 18 mph , 30 km/h, Gust: 31 mph , 50 km/h
Temperature: 43°F , 6°C
Wind Chill: 35°F , 2°C
Dew Point: 41°F , 5°C
Humidity: 93%
Barometer: 29.61 inHg , 1002.7 hPa
Summary: Light rain
Clouds: Overcast
Visibility: 7 miles , 11 km
Cloud details: Overcast 1600 ft
2019/10/16 17:58 KPZQ 161758Z AUTO 34016G27KT 7SM -RA OVC016 06/05 A2961 RMK AO2 T00630047 10088 20061
KAPN - Alpena, Michigan, USA
Distance from station: SSE 27mi, 43km
Updated: Wed, 16-Oct-2019 1:54pm EDT
Light rain, Overcast
Light rain, Overcast
 Wind from NNW
Wind: NNW 15 mph , 24 km/h, Gust: 25 mph , 41 km/h
Temperature: 45°F , 7°C
Wind Chill: 38°F , 3°C
Dew Point: 41°F , 5°C
Humidity: 87%
Barometer: 29.57 inHg , 1001.4 hPa
Summary: Light rain
Clouds: Overcast
Visibility: 10 miles , 16 km
Cloud details: Mostly cloudy 1400 ft
Overcast 2200 ft
2019/10/16 17:54 KAPN 161754Z 33013G22KT 10SM -RA BKN014 OVC022 07/05 A2957 RMK AO2 PK WND 35026/1735 SLP018 P0002 60002 T00670050 10100 20067 51032
 
KSLH - Cheboygan, Michigan, USA
Distance from station: WNW 38mi, 61km
Updated: Wed, 16-Oct-2019 1:56pm EDT
Overcast
Overcast
 Wind from N
Wind: N 18 mph , 30 km/h, Gust: 26 mph , 43 km/h
Temperature: 43°F , 6°C
Wind Chill: 35°F , 2°C
Dew Point: 41°F , 5°C
Humidity: 93%
Barometer: 29.66 inHg , 1004.4 hPa
Clouds: Overcast
Visibility: 10 miles , 16 km
Cloud details: Mostly cloudy 1600 ft
Overcast 2300 ft
2019/10/16 17:56 KSLH 161756Z AUTO 35016G23KT 10SM UP BKN016 OVC023 06/05 A2966 RMK AO2 6//// T00600045
KDRM - Drummond Is, Michigan, USA
Distance from station: N 40mi, 65km
Updated: Wed, 16-Oct-2019 1:59pm EDT
Light rain, Overcast
Light rain, Overcast
 Wind from N
Wind: N 13 mph , 20 km/h, Gust: 24 mph , 39 km/h
Temperature: 46°F , 8°C
Wind Chill: 40°F , 4°C
Dew Point: 43°F , 6°C
Humidity: 87%
Barometer: 29.61 inHg , 1002.7 hPa
Summary: Light rain
Clouds: Overcast
Visibility: 10 miles , 16 km
Cloud details: Mostly cloudy 1900 ft
Overcast 2500 ft
2019/10/16 17:59 KDRM 161759Z AUTO 36011G21KT 10SM -RA BKN019 OVC025 08/06 A2961 RMK AO2 P0001 60081 T00770059 10081 20071
 
KPLN - Pellston, Michigan, USA
Distance from station: WNW 49mi, 79km
Updated: Wed, 16-Oct-2019 1:54pm EDT
Light rain, Overcast
Light rain, Overcast
 Wind from N
Wind: N 21 mph , 33 km/h, Gust: 33 mph , 54 km/h
Temperature: 43°F , 6°C
Wind Chill: 34°F , 1°C
Dew Point: 39°F , 4°C
Humidity: 87%
Barometer: 29.69 inHg , 1005.4 hPa
Summary: Light rain
Clouds: Overcast
Visibility: 8 miles , 13 km
Cloud details: Overcast 1800 ft
2019/10/16 17:54 KPLN 161754Z AUTO 35018G29KT 8SM -RA OVC018 06/04 A2969 RMK AO2 PK WND 36029/1747 RAB00 SLP060 P0000 60027 T00610039 10067 20061 51020
KMCD - Mackinac Island, Michigan, USA
Distance from station: NW 50mi, 80km
Updated: Wed, 16-Oct-2019 1:57pm EDT
Rain, Overcast
Rain, Overcast
 Wind from N
Wind: N 18 mph , 30 km/h, Gust: 36 mph , 57 km/h
Temperature: 45°F , 7°C
Wind Chill: 37°F , 3°C
Dew Point: 45°F , 7°C
Humidity: 100%
Barometer: 29.68 inHg , 1005.1 hPa
Summary: Rain
Clouds: Overcast
Visibility: 10 miles , 16 km
Cloud details: Mostly cloudy 1300 ft
Overcast 1800 ft
2019/10/16 17:57 KMCD 161757Z AUTO 35016G31KT 10SM RA BKN013 OVC018 07/07 A2968 RMK AO2 60018 T00660066 10070 20061